Time;durP1;ratioP1;P1;durP2;ratioP2;P2;SDS_P1;SDS_P2;PMS_P1;PMS_P2;Temp;Humidity;BMP_temperature;BMP_pressure;BME280_temperature;BME280_humidity;BME280_pressure;Samples;Min_cycle;Max_cycle;Signal;HPM_P1;HPM_P2
2022/04/28 00:00:55;;;;;;;11.18;4.75;;;11.70;55.20;;;;;;5115895;28;20053;-68
2022/04/28 00:03:21;;;;;;;9.98;4.55;;;11.60;55.30;;;;;;5097862;28;20052;-68
2022/04/28 00:05:46;;;;;;;8.00;4.53;;;11.40;55.60;;;;;;5115941;28;20028;-68
2022/04/28 00:08:12;;;;;;;8.07;4.47;;;11.30;56.10;;;;;;5115869;28;20087;-67
2022/04/28 00:10:38;;;;;;;9.48;5.10;;;11.40;56.70;;;;;;5115704;28;20028;-68
2022/04/28 00:13:06;;;;;;;11.55;5.43;;;11.30;56.70;;;;;;5115730;28;20020;-68
2022/04/28 00:15:32;;;;;;;11.23;5.35;;;11.40;56.70;;;;;;5115524;28;20039;-68
2022/04/28 00:17:58;;;;;;;10.63;4.80;;;11.20;56.70;;;;;;5080882;28;20032;-68
2022/04/28 00:20:24;;;;;;;9.80;5.10;;;11.30;56.80;;;;;;5115526;28;20032;-68
2022/04/28 00:22:49;;;;;;;7.85;4.82;;;11.30;56.70;;;;;;5115417;28;20046;-68
2022/04/28 00:25:15;;;;;;;11.32;4.60;;;11.20;56.80;;;;;;5115427;28;20024;-67
2022/04/28 00:27:41;;;;;;;7.57;4.47;;;11.20;56.70;;;;;;5115124;28;20056;-68
2022/04/28 00:30:07;;;;;;;9.98;4.50;;;11.30;56.80;;;;;;5115335;28;20035;-68
2022/04/28 00:32:33;;;;;;;10.65;4.70;;;11.30;57.00;;;;;;5114660;28;20055;-68
2022/04/28 00:34:59;;;;;;;8.95;5.30;;;11.30;57.20;;;;;;5115250;28;20467;-68
2022/04/28 00:37:25;;;;;;;8.13;4.88;;;11.30;57.20;;;;;;5115208;28;20035;-67
2022/04/28 00:39:51;;;;;;;9.45;4.45;;;11.20;57.10;;;;;;5115102;28;20078;-68
2022/04/28 00:42:18;;;;;;;7.72;4.45;;;11.10;57.10;;;;;;5115081;28;20043;-68
2022/04/28 00:44:44;;;;;;;10.73;4.90;;;11.00;57.10;;;;;;5114970;28;20040;-68
2022/04/28 00:47:11;;;;;;;9.82;4.63;;;10.80;58.30;;;;;;5115023;28;20020;-68
2022/04/28 00:52:22;;;;;;;9.63;4.60;;;10.60;58.80;;;;;;5115019;28;20058;-68
2022/04/28 00:54:51;;;;;;;10.80;4.72;;;10.60;58.50;;;;;;5114854;28;20031;-68
2022/04/28 00:57:17;;;;;;;10.43;4.95;;;10.70;58.30;;;;;;5114954;28;20115;-68
2022/04/28 00:59:45;;;;;;;10.57;5.00;;;10.70;58.40;;;;;;5114889;28;20024;-68
2022/04/28 01:02:11;;;;;;;10.93;4.85;;;10.80;58.20;;;;;;5114712;28;20027;-68
2022/04/28 01:04:38;;;;;;;11.00;5.30;;;10.80;58.00;;;;;;5114588;28;20024;-68
2022/04/28 01:07:06;;;;;;;9.95;5.25;;;10.70;57.80;;;;;;5114737;28;20046;-68
2022/04/28 01:09:36;;;;;;;7.68;4.32;;;10.70;57.90;;;;;;5114491;28;20028;-68
2022/04/28 01:12:10;;;;;;;10.43;5.13;;;10.60;57.60;;;;;;5114613;28;20049;-68
2022/04/28 01:14:35;;;;;;;12.90;5.47;;;10.60;57.60;;;;;;5114515;28;20114;-68
2022/04/28 01:17:02;;;;;;;9.98;4.63;;;10.70;57.70;;;;;;5114434;28;20028;-68
2022/04/28 01:19:28;;;;;;;8.43;4.90;;;10.50;58.00;;;;;;5114372;28;20060;-68
2022/04/28 01:21:53;;;;;;;10.93;5.38;;;10.40;58.30;;;;;;5114328;28;20024;-67
2022/04/28 01:24:19;;;;;;;10.60;5.15;;;10.30;58.70;;;;;;5114179;28;20032;-68
2022/04/28 01:26:45;;;;;;;11.15;5.43;;;10.20;59.20;;;;;;5113978;28;20108;-68
2022/04/28 01:29:11;;;;;;;9.57;5.28;;;10.20;59.40;;;;;;5096154;28;20039;-68
2022/04/28 01:31:37;;;;;;;9.75;4.95;;;10.30;59.30;;;;;;5114269;28;20024;-67
2022/04/28 01:34:02;;;;;;;10.23;4.70;;;10.20;59.30;;;;;;5114092;28;20024;-67
2022/04/28 01:36:28;;;;;;;10.70;5.40;;;10.00;59.90;;;;;;5114074;28;20032;-68
2022/04/28 01:38:54;;;;;;;11.02;5.13;;;10.00;60.10;;;;;;5114148;28;20028;-68
2022/04/28 01:41:19;;;;;;;11.00;5.68;;;10.10;59.90;;;;;;5096105;28;20070;-67
2022/04/28 01:43:45;;;;;;;10.93;4.60;;;10.10;59.70;;;;;;5113260;28;20020;-68
2022/04/28 01:46:12;;;;;;;11.48;4.85;;;10.10;59.40;;;;;;5113923;28;20025;-68
2022/04/28 01:48:38;;;;;;;9.32;4.80;;;10.10;59.40;;;;;;5113870;28;20031;-68
2022/04/28 01:56:32;;;;;;;9.73;4.75;;;10.30;58.70;;;;;;5113875;28;20070;-68
2022/04/28 01:58:58;;;;;;;7.10;4.53;;;10.30;58.60;;;;;;5113701;28;20032;-67
2022/04/28 02:01:24;;;;;;;11.10;5.53;;;10.20;58.60;;;;;;5113674;28;20052;-68
2022/04/28 02:03:49;;;;;;;11.40;5.25;;;10.20;58.60;;;;;;5113572;28;20043;-67
2022/04/28 02:06:16;;;;;;;14.30;5.50;;;10.20;58.50;;;;;;5113609;28;20031;-68
2022/04/28 02:08:42;;;;;;;10.95;5.15;;;10.20;58.60;;;;;;5113703;28;20024;-68
2022/04/28 02:11:07;;;;;;;13.70;6.15;;;10.10;59.00;;;;;;5113557;28;20031;-68
2022/04/28 02:13:34;;;;;;;12.80;5.40;;;10.00;59.00;;;;;;5113509;28;20099;-67
2022/04/28 02:15:59;;;;;;;10.30;5.45;;;10.00;59.50;;;;;;5113523;28;20039;-67
2022/04/28 02:18:25;;;;;;;11.23;5.38;;;10.00;59.80;;;;;;5113458;28;20028;-68
2022/04/28 02:20:50;;;;;;;9.95;5.72;;;9.90;59.70;;;;;;5095675;28;20032;-68
2022/04/28 02:23:16;;;;;;;12.75;5.85;;;9.90;60.20;;;;;;5113358;28;20090;-68
2022/04/28 02:25:42;;;;;;;10.52;5.97;;;10.00;60.40;;;;;;5113369;28;20467;-68
2022/04/28 02:28:08;;;;;;;11.93;6.30;;;10.00;60.40;;;;;;5113200;28;20060;-68
2022/04/28 02:30:34;;;;;;;11.80;6.07;;;10.00;60.40;;;;;;5113359;28;20046;-68
2022/04/28 02:33:08;;;;;;;12.75;6.22;;;9.90;60.50;;;;;;5113333;28;20028;-67
2022/04/28 02:35:34;;;;;;;12.25;5.88;;;9.70;60.80;;;;;;5113454;28;20076;-67
2022/04/28 02:38:00;;;;;;;12.02;5.35;;;9.80;61.10;;;;;;5113238;28;20028;-68
2022/04/28 02:40:25;;;;;;;12.75;5.38;;;9.80;61.20;;;;;;5113252;28;20036;-68
2022/04/28 02:42:52;;;;;;;11.10;6.00;;;9.80;61.00;;;;;;5113139;28;20035;-68
2022/04/28 02:45:17;;;;;;;9.88;5.32;;;9.90;60.80;;;;;;5095534;28;20042;-68
2022/04/28 02:47:43;;;;;;;10.07;5.88;;;9.90;60.60;;;;;;5113156;28;20032;-68
2022/04/28 02:50:11;;;;;;;13.45;5.88;;;9.90;60.40;;;;;;5113271;28;20039;-68
2022/04/28 02:52:41;;;;;;;10.65;5.75;;;9.90;60.50;;;;;;5113308;28;20016;-68
2022/04/28 02:55:08;;;;;;;11.70;6.07;;;9.90;60.40;;;;;;5114035;28;20085;-68
2022/04/28 02:57:33;;;;;;;9.88;5.32;;;9.90;60.60;;;;;;5117122;28;20019;-68
2022/04/28 02:59:59;;;;;;;12.52;5.85;;;9.80;60.80;;;;;;5117130;28;20079;-68
2022/04/28 03:02:25;;;;;;;12.95;6.07;;;9.70;60.90;;;;;;5117007;28;20019;-68
2022/04/28 03:04:50;;;;;;;11.02;5.53;;;9.80;61.00;;;;;;5117050;28;20032;-68
2022/04/28 03:12:45;;;;;;;12.00;5.68;;;9.80;61.00;;;;;;5117110;28;20059;-68
2022/04/28 03:15:11;;;;;;;15.35;5.85;;;9.80;60.80;;;;;;5116843;28;20020;-67
2022/04/28 03:17:37;;;;;;;11.93;5.80;;;9.70;61.00;;;;;;5098856;28;20054;-68
2022/04/28 03:20:04;;;;;;;13.93;6.43;;;9.70;61.20;;;;;;5116727;28;20024;-67
2022/04/28 03:22:30;;;;;;;13.90;5.85;;;9.70;61.20;;;;;;5116656;28;20020;-67
2022/04/28 03:24:56;;;;;;;13.85;5.88;;;9.70;61.10;;;;;;5116554;28;20095;-68
2022/04/28 03:27:21;;;;;;;12.00;6.22;;;9.60;61.10;;;;;;5116383;28;20040;-68
2022/04/28 03:29:47;;;;;;;12.25;5.85;;;9.60;61.30;;;;;;5116466;28;20028;-67
2022/04/28 03:32:13;;;;;;;11.60;6.00;;;9.70;61.50;;;;;;5116595;28;20020;-68
2022/04/28 03:34:38;;;;;;;15.02;5.82;;;9.70;61.50;;;;;;5116435;28;20036;-68
2022/04/28 03:37:04;;;;;;;14.38;6.45;;;9.70;61.60;;;;;;5116508;28;20054;-68
2022/04/28 03:39:30;;;;;;;12.48;5.93;;;9.70;61.60;;;;;;5116354;28;20035;-68
2022/04/28 03:41:55;;;;;;;14.25;6.28;;;9.70;61.40;;;;;;5116446;28;20061;-68
2022/04/28 03:44:21;;;;;;;15.40;6.28;;;9.70;61.40;;;;;;5116172;28;20054;-67
2022/04/28 03:46:47;;;;;;;14.82;6.13;;;9.60;61.50;;;;;;5116208;28;20036;-68
2022/04/28 03:49:13;;;;;;;11.60;5.97;;;9.40;61.80;;;;;;5116175;28;20023;-68
2022/04/28 03:51:39;;;;;;;12.82;5.82;;;9.40;62.00;;;;;;5116118;28;20050;-68
2022/04/28 03:54:05;;;;;;;13.73;5.97;;;9.40;62.00;;;;;;5116096;28;20028;-68
2022/04/28 03:56:32;;;;;;;15.90;6.45;;;9.40;62.00;;;;;;5116008;28;20032;-68
2022/04/28 03:58:59;;;;;;;13.82;6.38;;;9.50;62.10;;;;;;5116041;28;20020;-68
2022/04/28 04:01:25;;;;;;;9.45;5.40;;;9.40;62.00;;;;;;5116099;28;20058;-68
2022/04/28 04:03:51;;;;;;;13.18;6.43;;;9.50;62.00;;;;;;5115839;28;20028;-68
2022/04/28 04:06:16;;;;;;;10.63;6.15;;;9.40;62.00;;;;;;5115812;28;20024;-68
2022/04/28 04:08:42;;;;;;;14.38;6.25;;;9.40;62.00;;;;;;5115316;28;20062;-68
2022/04/28 04:11:08;;;;;;;11.52;6.22;;;9.30;62.20;;;;;;5115784;28;20433;-68
2022/04/28 04:13:34;;;;;;;12.95;6.05;;;9.30;62.50;;;;;;5115689;28;20085;-68
2022/04/28 04:16:00;;;;;;;11.95;5.95;;;9.30;62.30;;;;;;5115654;28;20466;-68
2022/04/28 04:18:26;;;;;;;12.60;6.43;;;9.30;62.50;;;;;;5115584;28;20035;-68
2022/04/28 04:20:51;;;;;;;13.25;6.63;;;9.30;62.70;;;;;;5115586;28;20050;-68
2022/04/28 04:23:17;;;;;;;12.05;6.28;;;9.10;63.20;;;;;;5115454;28;20467;-68
2022/04/28 04:25:43;;;;;;;12.25;6.28;;;9.10;63.50;;;;;;5115467;28;20041;-68
2022/04/28 04:28:09;;;;;;;13.77;7.18;;;9.10;63.60;;;;;;5115176;28;20070;-68
2022/04/28 04:33:19;;;;;;;12.85;6.47;;;9.00;63.70;;;;;;5115551;28;20050;-68
2022/04/28 04:35:45;;;;;;;13.85;6.63;;;9.00;63.90;;;;;;5097474;28;20032;-68
2022/04/28 04:38:10;;;;;;;13.75;6.57;;;8.90;63.90;;;;;;5115183;28;20035;-68
2022/04/28 04:40:36;;;;;;;17.65;7.28;;;8.90;64.30;;;;;;5115175;28;20036;-68
2022/04/28 04:43:03;;;;;;;14.50;7.30;;;8.90;64.60;;;;;;5115052;28;20032;-68
2022/04/28 04:45:29;;;;;;;16.25;7.60;;;8.90;64.50;;;;;;5115100;28;20032;-67
2022/04/28 04:47:54;;;;;;;16.00;7.35;;;9.00;64.30;;;;;;5115017;28;20028;-68
2022/04/28 04:50:20;;;;;;;18.42;7.72;;;9.00;64.40;;;;;;5097114;28;20024;-68
2022/04/28 04:52:45;;;;;;;15.57;6.68;;;8.80;64.90;;;;;;5114929;28;20024;-67
2022/04/28 04:55:11;;;;;;;15.07;7.53;;;8.80;65.40;;;;;;5114871;28;20035;-68
2022/04/28 04:57:37;;;;;;;16.13;7.63;;;8.80;65.50;;;;;;5114860;28;20036;-67
2022/04/28 05:00:04;;;;;;;20.88;7.47;;;8.80;65.50;;;;;;5097049;28;20046;-68
2022/04/28 05:02:30;;;;;;;14.93;7.85;;;8.90;65.50;;;;;;5096797;28;20028;-68
2022/04/28 05:04:56;;;;;;;14.35;7.70;;;9.00;65.50;;;;;;5114573;28;20043;-67
2022/04/28 05:07:21;;;;;;;17.00;7.40;;;9.00;65.20;;;;;;5114636;28;20020;-68
2022/04/28 05:09:47;;;;;;;17.70;8.07;;;9.00;65.30;;;;;;5114596;28;20032;-68
2022/04/28 05:12:12;;;;;;;17.55;7.43;;;9.10;65.40;;;;;;5114666;28;20028;-68
2022/04/28 05:14:38;;;;;;;19.13;7.75;;;9.10;65.30;;;;;;5114515;28;20059;-68
2022/04/28 05:17:04;;;;;;;13.65;7.40;;;9.10;65.50;;;;;;5114454;28;20034;-68
2022/04/28 05:19:30;;;;;;;17.83;8.18;;;9.20;65.50;;;;;;5113460;28;20032;-67
2022/04/28 05:21:55;;;;;;;13.10;7.18;;;9.10;65.60;;;;;;5114393;28;20047;-68
2022/04/28 05:24:22;;;;;;;17.70;7.63;;;9.10;65.60;;;;;;5114239;28;20396;-68
2022/04/28 05:26:48;;;;;;;14.10;7.10;;;9.20;65.50;;;;;;5114110;28;20054;-68
2022/04/28 05:29:13;;;;;;;16.63;7.55;;;9.20;66.10;;;;;;5114146;28;20024;-68
2022/04/28 05:31:40;;;;;;;17.95;7.32;;;9.20;66.00;;;;;;5114191;28;20031;-68
2022/04/28 05:34:06;;;;;;;18.33;7.97;;;9.20;66.20;;;;;;5114134;28;20035;-68
2022/04/28 05:36:32;;;;;;;17.33;7.90;;;9.20;66.30;;;;;;5114108;28;20028;-68
2022/04/28 05:38:58;;;;;;;16.20;7.47;;;9.20;66.30;;;;;;5114041;28;20036;-68
2022/04/28 05:41:25;;;;;;;18.10;8.18;;;9.20;66.30;;;;;;5114045;28;20483;-68
2022/04/28 05:46:36;;;;;;;18.55;8.60;;;9.30;66.30;;;;;;5114072;28;20067;-67
2022/04/28 05:49:02;;;;;;;20.63;7.95;;;9.40;66.50;;;;;;5113912;28;20016;-67
2022/04/28 05:51:27;;;;;;;17.90;7.78;;;9.30;66.80;;;;;;5113873;28;20028;-68
2022/04/28 05:53:53;;;;;;;18.33;7.70;;;9.30;66.90;;;;;;5113812;28;20032;-67
2022/04/28 05:56:18;;;;;;;16.15;7.57;;;9.30;67.20;;;;;;5113874;28;20036;-68
2022/04/28 05:58:44;;;;;;;13.07;7.28;;;9.30;67.60;;;;;;5113779;28;20050;-68
2022/04/28 06:01:10;;;;;;;15.70;7.32;;;9.30;67.40;;;;;;5113707;28;20024;-68
2022/04/28 06:03:35;;;;;;;14.13;7.15;;;9.40;67.20;;;;;;5113612;28;20036;-68
2022/04/28 06:06:02;;;;;;;15.55;7.20;;;9.40;67.20;;;;;;5113630;28;20050;-68
2022/04/28 06:08:27;;;;;;;15.63;7.38;;;9.50;67.40;;;;;;5113609;28;20044;-67
2022/04/28 06:10:53;;;;;;;16.77;7.35;;;9.60;67.30;;;;;;5113586;28;20024;-67
2022/04/28 06:13:19;;;;;;;17.67;7.40;;;9.60;67.50;;;;;;5113494;28;20062;-67
2022/04/28 06:15:44;;;;;;;17.08;7.53;;;9.70;67.60;;;;;;5113498;28;20024;-67
2022/04/28 06:18:10;;;;;;;16.75;8.38;;;9.80;67.50;;;;;;5095514;28;20032;-67
2022/04/28 06:20:35;;;;;;;13.07;7.32;;;9.80;67.10;;;;;;5113515;28;20028;-67
2022/04/28 06:23:01;;;;;;;16.83;7.28;;;9.80;67.20;;;;;;5113348;28;20081;-67
2022/04/28 06:25:28;;;;;;;17.80;8.00;;;9.80;67.40;;;;;;5113408;28;20024;-67
2022/04/28 06:27:53;;;;;;;15.70;6.70;;;9.80;67.10;;;;;;5113084;28;20070;-67
2022/04/28 06:30:19;;;;;;;17.60;7.72;;;9.80;67.00;;;;;;5115846;28;20031;-67
2022/04/28 06:32:44;;;;;;;17.42;7.68;;;9.80;67.00;;;;;;5085481;28;20024;-67
2022/04/28 06:35:11;;;;;;;13.93;7.30;;;9.90;67.30;;;;;;5120070;28;20035;-67
2022/04/28 06:37:37;;;;;;;19.33;7.97;;;9.90;66.90;;;;;;5102273;28;20029;-67
2022/04/28 06:40:03;;;;;;;16.23;7.63;;;10.00;67.40;;;;;;5120005;28;20084;-67
2022/04/28 06:42:29;;;;;;;16.30;7.07;;;10.00;67.70;;;;;;5119968;28;20083;-67
2022/04/28 06:44:55;;;;;;;16.33;6.47;;;10.10;67.20;;;;;;5119913;28;20085;-67
2022/04/28 06:47:21;;;;;;;13.10;6.82;;;10.10;67.00;;;;;;5119958;28;20043;-67
2022/04/28 06:49:47;;;;;;;13.85;6.72;;;10.20;66.70;;;;;;5119939;28;20027;-68
2022/04/28 06:52:12;;;;;;;14.30;6.32;;;10.20;66.90;;;;;;5120027;28;20024;-67
2022/04/28 06:54:38;;;;;;;13.70;6.88;;;10.30;66.80;;;;;;5119895;28;20081;-68
2022/04/28 06:57:04;;;;;;;14.90;6.50;;;10.30;66.70;;;;;;5119918;28;20032;-68
2022/04/28 06:59:30;;;;;;;18.58;7.32;;;10.20;66.30;;;;;;5119962;28;20085;-67
2022/04/28 07:01:55;;;;;;;16.42;6.53;;;10.30;66.10;;;;;;5119983;28;20049;-67
2022/04/28 07:04:21;;;;;;;12.98;7.20;;;10.30;66.70;;;;;;5119737;28;20036;-68
2022/04/28 07:06:47;;;;;;;17.75;6.70;;;10.40;66.30;;;;;;5119837;28;20035;-68
2022/04/28 07:09:12;;;;;;;14.07;6.50;;;10.40;66.10;;;;;;5119890;28;20024;-68
2022/04/28 07:11:38;;;;;;;15.57;6.63;;;10.50;66.00;;;;;;5119775;28;20031;-67
2022/04/28 07:14:04;;;;;;;15.52;6.65;;;10.60;66.40;;;;;;5119732;28;20039;-67
2022/04/28 07:16:29;;;;;;;12.77;6.45;;;10.60;65.80;;;;;;5119676;28;20043;-67
2022/04/28 07:18:55;;;;;;;13.02;6.25;;;10.60;65.20;;;;;;5119651;28;20032;-67
2022/04/28 07:21:20;;;;;;;15.02;6.57;;;10.70;65.30;;;;;;5119661;28;20043;-68
2022/04/28 07:23:46;;;;;;;14.85;6.25;;;10.80;65.30;;;;;;5119570;28;20024;-68
2022/04/28 07:26:11;;;;;;;17.92;7.07;;;10.80;65.10;;;;;;5119620;28;20032;-68
2022/04/28 07:28:37;;;;;;;14.57;6.38;;;10.90;64.90;;;;;;5119400;28;20044;-68
2022/04/28 07:31:03;;;;;;;20.20;6.65;;;11.00;64.90;;;;;;5119588;28;20493;-68
2022/04/28 07:33:29;;;;;;;16.70;6.70;;;11.00;64.80;;;;;;5119542;28;20030;-68
2022/04/28 07:35:55;;;;;;;13.27;6.38;;;11.10;64.30;;;;;;5119533;28;20024;-68
2022/04/28 07:38:22;;;;;;;15.23;6.82;;;11.10;64.60;;;;;;5101637;28;20471;-67
2022/04/28 07:40:48;;;;;;;16.17;6.43;;;11.30;64.80;;;;;;5119496;28;20042;-67
2022/04/28 07:43:14;;;;;;;10.85;5.97;;;11.30;64.50;;;;;;5097234;28;20028;-67
2022/04/28 07:45:40;;;;;;;15.88;6.93;;;11.40;65.00;;;;;;5098443;28;20035;-67
2022/04/28 07:48:05;;;;;;;17.58;6.53;;;11.50;65.20;;;;;;5098337;28;20050;-67
2022/04/28 07:50:32;;;;;;;13.88;6.10;;;11.60;63.60;;;;;;5116114;28;20047;-68
2022/04/28 07:52:57;;;;;;;15.32;7.07;;;11.70;64.10;;;;;;5116095;28;20033;-67
2022/04/28 07:55:23;;;;;;;13.85;6.68;;;11.70;63.20;;;;;;5116034;28;20028;-67
2022/04/28 07:57:49;;;;;;;12.32;6.10;;;11.90;63.30;;;;;;5116116;28;20032;-67
2022/04/28 08:00:15;;;;;;;15.02;6.97;;;11.90;63.00;;;;;;5115937;28;20043;-67
2022/04/28 08:02:40;;;;;;;15.25;6.85;;;11.90;62.80;;;;;;5115923;28;20387;-67
2022/04/28 08:05:06;;;;;;;13.70;7.63;;;12.00;62.80;;;;;;5115797;28;20051;-67
2022/04/28 08:07:33;;;;;;;14.02;6.30;;;12.10;62.70;;;;;;5115812;28;20486;-67
2022/04/28 08:09:59;;;;;;;15.07;6.57;;;12.20;62.10;;;;;;5115788;28;20022;-67
2022/04/28 08:12:25;;;;;;;13.52;7.00;;;12.30;62.30;;;;;;5115752;28;20410;-67
2022/04/28 08:14:50;;;;;;;14.10;6.18;;;12.40;62.40;;;;;;5115681;28;20038;-67
2022/04/28 08:17:16;;;;;;;17.20;6.18;;;12.50;61.90;;;;;;5097723;28;20028;-67
2022/04/28 08:19:42;;;;;;;14.30;6.70;;;12.60;61.20;;;;;;5115590;28;20024;-67
2022/04/28 08:22:08;;;;;;;13.55;6.28;;;12.70;61.20;;;;;;5115548;28;20611;-67
2022/04/28 08:24:34;;;;;;;14.98;6.38;;;12.70;60.70;;;;;;5115409;28;20040;-68
2022/04/28 08:26:59;;;;;;;10.55;5.72;;;12.80;60.80;;;;;;5115239;28;20068;-67
2022/04/28 08:29:25;;;;;;;12.02;6.20;;;12.90;60.80;;;;;;5115317;28;20368;-68
2022/04/28 08:31:51;;;;;;;15.25;6.57;;;13.00;60.40;;;;;;5097342;28;20490;-67
2022/04/28 08:34:18;;;;;;;13.43;6.50;;;13.10;60.40;;;;;;5115306;28;20058;-68
2022/04/28 08:36:45;;;;;;;13.57;6.97;;;13.20;60.20;;;;;;5115233;28;20079;-67
2022/04/28 08:39:11;;;;;;;10.73;6.00;;;13.30;59.10;;;;;;5115217;28;20028;-67
2022/04/28 08:41:38;;;;;;;12.07;5.82;;;13.30;59.10;;;;;;5115186;28;20055;-67
2022/04/28 08:44:05;;;;;;;13.00;6.60;;;13.30;59.10;;;;;;5115015;28;20028;-67
2022/04/28 08:49:27;;;;;;;10.43;5.90;;;13.50;59.30;;;;;;5115125;28;20036;-67
2022/04/28 08:51:57;;;;;;;11.77;6.35;;;13.50;59.40;;;;;;5115127;28;20020;-67
2022/04/28 08:54:25;;;;;;;13.25;5.82;;;13.60;58.90;;;;;;5114786;28;20046;-68
2022/04/28 08:56:52;;;;;;;15.75;6.45;;;13.60;59.70;;;;;;5114782;28;20056;-67
2022/04/28 08:59:21;;;;;;;11.50;5.85;;;13.60;59.60;;;;;;5114842;28;20054;-68
2022/04/28 09:01:47;;;;;;;11.73;5.72;;;13.50;59.70;;;;;;5114784;28;20103;-67
2022/04/28 09:04:13;;;;;;;9.50;5.45;;;13.60;60.10;;;;;;5114663;28;20080;-67
2022/04/28 09:06:41;;;;;;;12.85;5.93;;;13.70;58.40;;;;;;5114659;28;20057;-68
2022/04/28 09:09:12;;;;;;;14.30;6.47;;;13.80;57.90;;;;;;5114648;28;20020;-68
2022/04/28 09:11:39;;;;;;;13.63;6.55;;;13.90;57.20;;;;;;5114576;28;20080;-67
2022/04/28 09:14:14;;;;;;;14.77;6.50;;;14.00;57.70;;;;;;5096629;28;20589;-67
2022/04/28 09:16:49;;;;;;;9.95;5.40;;;14.00;57.00;;;;;;5114517;28;20031;-67
2022/04/28 09:19:25;;;;;;;10.73;5.32;;;14.10;58.20;;;;;;5114474;28;20028;-67
2022/04/28 09:22:09;;;;;;;11.65;5.43;;;14.20;57.30;;;;;;5114548;28;20027;-67
2022/04/28 09:24:36;;;;;;;14.20;6.22;;;14.20;57.80;;;;;;5114478;28;20022;-67
2022/04/28 09:27:03;;;;;;;12.65;6.10;;;14.20;57.20;;;;;;5114032;28;20040;-67
2022/04/28 09:29:30;;;;;;;11.93;5.72;;;14.00;55.10;;;;;;5114309;28;20056;-67
2022/04/28 09:31:56;;;;;;;11.18;5.78;;;14.00;55.80;;;;;;5114238;28;20027;-67
2022/04/28 09:34:24;;;;;;;11.73;6.05;;;14.10;55.70;;;;;;5114168;28;20137;-67
2022/04/28 09:36:50;;;;;;;12.90;5.68;;;14.20;55.90;;;;;;5114252;28;20039;-67
2022/04/28 09:42:29;;;;;;;10.95;5.95;;;14.30;55.30;;;;;;5114107;28;20028;-67
2022/04/28 09:44:51;;;;;;;12.05;5.55;;;14.60;53.90;;;;;;5098895;28;20042;-67
2022/04/28 09:47:21;;;;;;;9.55;5.47;;;14.80;53.70;;;;;;5113951;28;20025;-67
2022/04/28 09:49:55;;;;;;;12.23;5.88;;;14.90;53.50;;;;;;5113903;28;20020;-67
2022/04/28 09:52:24;;;;;;;13.32;5.32;;;15.00;55.00;;;;;;5113913;28;20056;-67
2022/04/28 09:54:51;;;;;;;12.95;5.47;;;15.10;53.00;;;;;;5113764;28;20032;-67
2022/04/28 09:57:21;;;;;;;13.05;5.78;;;15.20;52.20;;;;;;5113773;28;20035;-67
2022/04/28 09:59:55;;;;;;;12.73;5.95;;;15.10;52.50;;;;;;5113695;28;20062;-67
2022/04/28 10:02:23;;;;;;;12.32;6.00;;;15.10;52.80;;;;;;5113885;28;20117;-68
2022/04/28 10:04:50;;;;;;;11.70;5.32;;;15.10;52.70;;;;;;5113204;28;20024;-68
2022/04/28 10:07:17;;;;;;;9.90;5.53;;;15.00;51.30;;;;;;5113620;28;20024;-68
2022/04/28 10:09:48;;;;;;;11.10;5.75;;;15.10;52.80;;;;;;5095709;28;20031;-69
2022/04/28 10:12:20;;;;;;;10.40;5.50;;;15.30;53.40;;;;;;5113530;28;20079;-68
2022/04/28 10:14:48;;;;;;;11.00;5.80;;;15.40;52.40;;;;;;5113483;28;20020;-68
2022/04/28 10:17:32;;;;;;;12.45;5.80;;;15.60;53.10;;;;;;5113510;28;20025;-67
2022/04/28 10:20:25;;;;;;;11.65;5.63;;;15.70;51.80;;;;;;5113452;28;20062;-67
2022/04/28 10:22:52;;;;;;;10.43;5.40;;;15.80;52.50;;;;;;5108404;28;20040;-67
2022/04/28 10:33:49;;;;;;;12.73;5.90;;;16.20;50.40;;;;;;5113482;28;20046;-68
2022/04/28 10:36:17;;;;;;;11.30;6.00;;;16.30;51.00;;;;;;5113348;28;20028;-67
2022/04/28 10:39:07;;;;;;;11.15;6.47;;;16.40;50.20;;;;;;5113307;28;20024;-67
2022/04/28 10:41:34;;;;;;;11.25;5.60;;;16.40;49.10;;;;;;5113279;28;20029;-68
2022/04/28 10:44:00;;;;;;;10.43;5.38;;;16.40;48.90;;;;;;5113161;28;20513;-68
2022/04/28 10:46:28;;;;;;;11.55;5.43;;;16.50;48.60;;;;;;5113242;28;20017;-68
2022/04/28 10:48:59;;;;;;;12.50;5.60;;;16.70;49.10;;;;;;5113163;28;20023;-68
2022/04/28 10:51:26;;;;;;;11.35;5.53;;;16.70;48.30;;;;;;5113341;28;20044;-67
2022/04/28 10:54:06;;;;;;;13.75;6.00;;;16.80;48.10;;;;;;5113133;28;20028;-67
2022/04/28 10:57:02;;;;;;;10.25;5.32;;;16.80;48.10;;;;;;5113161;28;20035;-67
2022/04/28 10:59:40;;;;;;;13.98;5.47;;;16.90;47.90;;;;;;5095238;28;20053;-67
2022/04/28 11:02:11;;;;;;;11.57;5.70;;;16.80;46.30;;;;;;5113251;28;20031;-67
2022/04/28 11:04:39;;;;;;;10.27;5.85;;;16.90;46.80;;;;;;5112953;28;20482;-68
2022/04/28 11:07:17;;;;;;;12.15;5.50;;;17.00;48.00;;;;;;5113018;28;20054;-68
2022/04/28 11:09:44;;;;;;;11.90;5.93;;;17.10;46.70;;;;;;5113078;28;20020;-68
2022/04/28 11:12:16;;;;;;;15.40;6.03;;;17.10;46.90;;;;;;5112965;28;20039;-67
2022/04/28 11:14:48;;;;;;;8.88;5.82;;;17.20;45.70;;;;;;5113025;28;20039;-67
2022/04/28 11:17:16;;;;;;;12.40;5.60;;;17.20;46.00;;;;;;5113927;28;20032;-67
2022/04/28 11:19:44;;;;;;;10.48;5.30;;;17.20;47.30;;;;;;5116781;28;20032;-68
2022/04/28 11:22:12;;;;;;;12.32;5.75;;;17.30;47.50;;;;;;5116727;28;20079;-67
2022/04/28 11:24:42;;;;;;;10.88;6.28;;;17.40;46.40;;;;;;5116669;28;20020;-67
2022/04/28 11:27:12;;;;;;;13.70;6.15;;;17.50;46.00;;;;;;5116494;28;20063;-68
2022/04/28 11:29:39;;;;;;;10.60;6.20;;;17.50;45.80;;;;;;5116683;28;20047;-68
2022/04/28 11:32:08;;;;;;;13.48;6.28;;;17.50;46.40;;;;;;5116591;28;20023;-68
2022/04/28 11:34:34;;;;;;;11.45;6.15;;;17.50;44.20;;;;;;5116588;28;20016;-68
2022/04/28 11:37:38;;;;;;;13.05;5.65;;;17.30;45.00;;;;;;5116482;28;20032;-68
2022/04/28 11:40:04;;;;;;;13.15;5.72;;;17.30;47.30;;;;;;5014611;28;20035;-68
2022/04/28 11:42:33;;;;;;;10.43;5.75;;;17.20;45.90;;;;;;5097632;28;20051;-67
2022/04/28 11:45:00;;;;;;;10.05;6.22;;;17.20;46.70;;;;;;5116228;28;20028;-68
2022/04/28 11:47:27;;;;;;;12.27;5.57;;;17.30;46.90;;;;;;5116335;28;20031;-67
2022/04/28 11:50:03;;;;;;;12.35;6.32;;;17.40;46.10;;;;;;5116157;28;20020;-67
2022/04/28 11:52:37;;;;;;;10.00;5.95;;;17.50;45.90;;;;;;5116204;28;20028;-68
2022/04/28 11:55:08;;;;;;;12.35;5.85;;;17.60;45.00;;;;;;5116114;28;20028;-66
2022/04/28 11:57:37;;;;;;;9.20;5.10;;;17.60;46.40;;;;;;5116081;28;20020;-68
2022/04/28 12:00:06;;;;;;;9.68;5.15;;;17.70;46.40;;;;;;5116052;28;20027;-67
2022/04/28 12:02:34;;;;;;;11.15;5.45;;;17.80;45.90;;;;;;5098350;28;20035;-67
2022/04/28 12:05:14;;;;;;;12.75;6.45;;;17.90;44.40;;;;;;5115792;28;20035;-67
2022/04/28 12:07:42;;;;;;;13.05;6.05;;;17.90;43.20;;;;;;5115878;28;20107;-68
2022/04/28 12:15:38;;;;;;;11.70;5.38;;;18.00;43.90;;;;;;5100661;28;20039;-68
2022/04/28 12:20:58;;;;;;;10.77;5.15;;;18.20;44.40;;;;;;5115907;28;20035;-67
2022/04/28 12:23:48;;;;;;;9.00;5.10;;;18.30;42.10;;;;;;5115458;28;20035;-67
2022/04/28 12:26:13;;;;;;;11.30;5.35;;;18.30;42.10;;;;;;5097670;28;20028;-67
2022/04/28 12:28:43;;;;;;;12.60;5.63;;;18.30;41.90;;;;;;5114643;28;20048;-67
2022/04/28 12:31:14;;;;;;;10.52;5.22;;;18.40;42.10;;;;;;5115427;28;20027;-67
2022/04/28 12:33:41;;;;;;;12.07;5.38;;;18.50;41.40;;;;;;5115358;28;20028;-67
2022/04/28 12:36:13;;;;;;;7.93;5.45;;;18.40;43.10;;;;;;5115282;28;20024;-67
2022/04/28 12:38:48;;;;;;;11.70;5.97;;;18.40;42.90;;;;;;5115344;28;20049;-67
2022/04/28 12:41:16;;;;;;;13.20;5.78;;;18.50;42.60;;;;;;5115229;28;20049;-68
2022/04/28 12:43:43;;;;;;;10.90;5.63;;;18.50;40.50;;;;;;5115093;28;20032;-67
2022/04/28 12:46:10;;;;;;;9.13;5.13;;;18.30;42.50;;;;;;5115157;28;20016;-67
2022/04/28 12:48:37;;;;;;;11.98;5.63;;;18.40;44.40;;;;;;5115097;28;20024;-68
2022/04/28 12:51:16;;;;;;;11.73;5.60;;;18.60;42.90;;;;;;5114964;28;20024;-68
2022/04/28 12:53:45;;;;;;;9.27;5.78;;;18.80;41.50;;;;;;5114917;28;20087;-68
2022/04/28 12:56:14;;;;;;;10.93;5.22;;;18.90;42.40;;;;;;5097007;28;20047;-68
2022/04/28 12:58:41;;;;;;;9.30;4.80;;;19.00;41.50;;;;;;5114846;28;20024;-67
2022/04/28 13:01:18;;;;;;;13.48;6.18;;;19.10;40.00;;;;;;5114785;28;20070;-68
2022/04/28 13:03:54;;;;;;;11.07;5.00;;;19.10;40.90;;;;;;5114708;28;20020;-67
2022/04/28 13:06:20;;;;;;;12.80;5.60;;;19.10;40.90;;;;;;5114749;28;20031;-68
2022/04/28 13:08:46;;;;;;;10.93;5.68;;;19.10;41.10;;;;;;5114699;28;20020;-68
2022/04/28 13:11:12;;;;;;;12.52;6.25;;;19.20;41.30;;;;;;5114588;28;20031;-67
2022/04/28 13:13:38;;;;;;;12.18;5.30;;;19.30;40.10;;;;;;5114559;28;20024;-68
2022/04/28 13:16:04;;;;;;;9.18;5.70;;;19.40;39.80;;;;;;5114547;28;20107;-68
2022/04/28 13:18:29;;;;;;;10.27;6.20;;;19.50;40.20;;;;;;5114449;28;20118;-68
2022/04/28 13:20:55;;;;;;;12.98;6.03;;;19.60;40.10;;;;;;5114456;28;20088;-67
2022/04/28 13:23:21;;;;;;;10.13;5.43;;;19.50;39.20;;;;;;5114442;28;20032;-67